Littleton, CO (80127)

5:43 PM MST on November 24, 2014 (GMT -0700)
Mill Hollow | Change Station
CLOSE
Current Station
Personal Weather Station
Location: Littleton, CO
Elevation: 7125 ft
Nearby Weather Stations
Active Advisory: High Wind Warning Active Notice: Public Information Statement

Elev 7125 ft 39.52 °N, 105.16 °W | Updated 7 minutes ago

Overcast
Overcast
28.7 °F
Feels Like 29 °F
N
0.0
Wind Variable Wind from NE
Gusts 5.0 mph

Today
High -- | Low -- °F
--% Chance of Precip.
Yesterday
High -- | Low -- °F
Precip. -- in
6:54 AM 4:39 PM
Waxing Crescent, 8% visible
Pressure 30.22 in
Visibility 10.0 miles
Clouds Scattered Clouds 4000 ft
Mostly Cloudy 10000 ft
Mostly Cloudy 18000 ft
Windchill 29 °F
Dew Point 6 °F
Humidity 39%
Rainfall 0.00 in
Snow Depth Not available.
UV 0 out of 12
Pollen .10 out of 12
Air Quality Not available.
Flu Activity Not available.
METAR KAPA 242353Z 01014KT 10SM SCT040 BKN100 BKN180 00/M10 A3013 RMK AO2 SLP234 60000 T00001100 10050 21011 51041

More Conditions Fewer Conditions

Pressure 30.22 in
Visibility 10.0 miles
Clouds Scattered Clouds 4000 ft
Mostly Cloudy 10000 ft
Mostly Cloudy 18000 ft
Windchill 29 °F
Dew Point 6 °F
Humidity 39%
Rainfall 0.00 in
Snow Depth Not available.
UV 0 out of 12
Pollen .10 out of 12
Air Quality Not available.
Flu Activity Not available.
METAR KAPA 242353Z 01014KT 10SM SCT040 BKN100 BKN180 00/M10 A3013 RMK AO2 SLP234 60000 T00001100 10050 21011 51041

More Conditions Fewer Conditions

Nowcast | as of 5:09 PM MST on November 24, 2014

West to northwest winds at 15 to 25 mph will continue in the Front Range foothills through this evening...with gusts to 45 mph in wind prone areas.

×

10-Day Weather Forecast

Almanac

Astronomy

Nov. 24, 2014 Rise Set
Actual Time
Civil Twilight
Nautical Twilight
Astronomical Twilight
Moon
Length of Visible Light
Length of Day
Tomorrow will be .
, % of the Moon is Illuminated

Today's Extremes

State Highs State Lows

Community

WunderPhotos

Upload Photos

1,773,442 photos uploaded!

WunderBlogs® & News

Nearby

Air Quality

  Air Quality AQ Index Pollutant
Not available.

Snow Depth

Station Depth Elevation

Earthquake Activity

City Distance Mag. Time & Date
Minimum magnitude displayed is 2.5.

Coastal Water Temperatures

Place Temperature

Nearby Weather Stations